sensor_id;sensor_type;location;lat;lon;timestamp;P1;durP1;ratioP1;P2;durP2;ratioP2
47403;SDS011;33157;51.508;4.288;2023-03-01T00:02:45;15.30;;;9.80;;
47403;SDS011;33157;51.508;4.288;2023-03-01T00:07:52;17.52;;;9.20;;
47403;SDS011;33157;51.508;4.288;2023-03-01T00:12:55;12.98;;;9.77;;
47403;SDS011;33157;51.508;4.288;2023-03-01T00:17:57;14.48;;;10.02;;
47403;SDS011;33157;51.508;4.288;2023-03-01T00:23:03;13.27;;;9.20;;
47403;SDS011;33157;51.508;4.288;2023-03-01T00:28:05;19.42;;;10.60;;
47403;SDS011;33157;51.508;4.288;2023-03-01T00:33:12;14.13;;;9.90;;
47403;SDS011;33157;51.508;4.288;2023-03-01T00:38:14;16.17;;;10.93;;
47403;SDS011;33157;51.508;4.288;2023-03-01T00:43:24;15.80;;;10.43;;
47403;SDS011;33157;51.508;4.288;2023-03-01T00:48:25;16.63;;;10.40;;
47403;SDS011;33157;51.508;4.288;2023-03-01T00:53:29;14.90;;;11.02;;
47403;SDS011;33157;51.508;4.288;2023-03-01T01:03:36;15.57;;;9.57;;
47403;SDS011;33157;51.508;4.288;2023-03-01T01:08:37;14.85;;;10.65;;
47403;SDS011;33157;51.508;4.288;2023-03-01T01:13:39;19.83;;;11.43;;
47403;SDS011;33157;51.508;4.288;2023-03-01T01:18:48;15.70;;;11.02;;
47403;SDS011;33157;51.508;4.288;2023-03-01T01:23:56;16.05;;;11.38;;
47403;SDS011;33157;51.508;4.288;2023-03-01T01:29:09;17.75;;;11.98;;
47403;SDS011;33157;51.508;4.288;2023-03-01T01:34:14;18.42;;;11.82;;
47403;SDS011;33157;51.508;4.288;2023-03-01T01:39:22;17.00;;;12.35;;
47403;SDS011;33157;51.508;4.288;2023-03-01T01:44:33;16.58;;;11.50;;
47403;SDS011;33157;51.508;4.288;2023-03-01T01:49:37;18.13;;;12.63;;
47403;SDS011;33157;51.508;4.288;2023-03-01T01:54:53;19.10;;;12.93;;
47403;SDS011;33157;51.508;4.288;2023-03-01T01:59:58;21.45;;;12.68;;
47403;SDS011;33157;51.508;4.288;2023-03-01T02:05:09;19.00;;;12.88;;
47403;SDS011;33157;51.508;4.288;2023-03-01T02:10:18;18.33;;;11.85;;
47403;SDS011;33157;51.508;4.288;2023-03-01T02:15:27;20.33;;;12.88;;
47403;SDS011;33157;51.508;4.288;2023-03-01T02:20:57;19.63;;;12.73;;
47403;SDS011;33157;51.508;4.288;2023-03-01T02:26:21;21.73;;;13.27;;
47403;SDS011;33157;51.508;4.288;2023-03-01T02:31:42;23.45;;;13.80;;
47403;SDS011;33157;51.508;4.288;2023-03-01T02:42:03;22.52;;;14.00;;
47403;SDS011;33157;51.508;4.288;2023-03-01T02:47:08;23.58;;;12.80;;
47403;SDS011;33157;51.508;4.288;2023-03-01T02:57:18;21.92;;;14.15;;
47403;SDS011;33157;51.508;4.288;2023-03-01T03:02:26;21.20;;;13.75;;
47403;SDS011;33157;51.508;4.288;2023-03-01T03:07:40;24.27;;;14.25;;
47403;SDS011;33157;51.508;4.288;2023-03-01T03:12:49;20.48;;;14.15;;
47403;SDS011;33157;51.508;4.288;2023-03-01T03:17:56;21.20;;;13.68;;
47403;SDS011;33157;51.508;4.288;2023-03-01T03:22:58;27.08;;;15.02;;
47403;SDS011;33157;51.508;4.288;2023-03-01T03:28:06;19.95;;;13.25;;
47403;SDS011;33157;51.508;4.288;2023-03-01T03:33:20;21.00;;;13.00;;
47403;SDS011;33157;51.508;4.288;2023-03-01T03:38:27;22.05;;;14.82;;
47403;SDS011;33157;51.508;4.288;2023-03-01T03:43:28;20.42;;;13.55;;
47403;SDS011;33157;51.508;4.288;2023-03-01T03:53:46;21.00;;;13.15;;
47403;SDS011;33157;51.508;4.288;2023-03-01T03:58:47;22.98;;;13.60;;
47403;SDS011;33157;51.508;4.288;2023-03-01T04:03:55;21.20;;;13.70;;
47403;SDS011;33157;51.508;4.288;2023-03-01T04:08:56;19.58;;;13.02;;
47403;SDS011;33157;51.508;4.288;2023-03-01T04:14:00;22.23;;;13.25;;
47403;SDS011;33157;51.508;4.288;2023-03-01T04:19:01;20.60;;;13.60;;
47403;SDS011;33157;51.508;4.288;2023-03-01T04:24:08;23.00;;;14.35;;
47403;SDS011;33157;51.508;4.288;2023-03-01T04:29:21;20.00;;;13.57;;
47403;SDS011;33157;51.508;4.288;2023-03-01T04:34:23;23.02;;;13.73;;
47403;SDS011;33157;51.508;4.288;2023-03-01T04:39:30;19.02;;;13.07;;
47403;SDS011;33157;51.508;4.288;2023-03-01T04:44:32;22.83;;;14.07;;
47403;SDS011;33157;51.508;4.288;2023-03-01T04:49:39;21.50;;;14.45;;
47403;SDS011;33157;51.508;4.288;2023-03-01T04:54:40;24.48;;;14.75;;
47403;SDS011;33157;51.508;4.288;2023-03-01T04:59:47;21.50;;;14.73;;
47403;SDS011;33157;51.508;4.288;2023-03-01T05:04:49;21.55;;;14.00;;
47403;SDS011;33157;51.508;4.288;2023-03-01T05:09:54;25.02;;;15.65;;
47403;SDS011;33157;51.508;4.288;2023-03-01T05:14:56;25.98;;;16.52;;
47403;SDS011;33157;51.508;4.288;2023-03-01T05:19:58;23.08;;;15.10;;
47403;SDS011;33157;51.508;4.288;2023-03-01T05:25:00;22.88;;;14.73;;
47403;SDS011;33157;51.508;4.288;2023-03-01T05:30:02;24.52;;;15.23;;
47403;SDS011;33157;51.508;4.288;2023-03-01T05:35:27;25.38;;;15.88;;
47403;SDS011;33157;51.508;4.288;2023-03-01T05:40:29;22.52;;;14.70;;
47403;SDS011;33157;51.508;4.288;2023-03-01T05:45:37;25.50;;;15.85;;
47403;SDS011;33157;51.508;4.288;2023-03-01T05:50:41;24.67;;;16.38;;
47403;SDS011;33157;51.508;4.288;2023-03-01T05:55:46;23.70;;;15.45;;
47403;SDS011;33157;51.508;4.288;2023-03-01T06:00:52;24.23;;;14.82;;
47403;SDS011;33157;51.508;4.288;2023-03-01T06:05:56;22.73;;;14.63;;
47403;SDS011;33157;51.508;4.288;2023-03-01T06:11:06;22.80;;;13.65;;
47403;SDS011;33157;51.508;4.288;2023-03-01T06:16:08;22.77;;;13.65;;
47403;SDS011;33157;51.508;4.288;2023-03-01T06:21:09;20.00;;;13.30;;
47403;SDS011;33157;51.508;4.288;2023-03-01T06:26:11;23.25;;;13.15;;
47403;SDS011;33157;51.508;4.288;2023-03-01T06:31:14;21.48;;;13.15;;
47403;SDS011;33157;51.508;4.288;2023-03-01T06:36:15;19.55;;;12.30;;
47403;SDS011;33157;51.508;4.288;2023-03-01T06:41:19;20.73;;;11.63;;
47403;SDS011;33157;51.508;4.288;2023-03-01T06:46:21;19.63;;;11.88;;
47403;SDS011;33157;51.508;4.288;2023-03-01T06:51:23;20.30;;;12.25;;
47403;SDS011;33157;51.508;4.288;2023-03-01T06:56:30;19.52;;;11.00;;
47403;SDS011;33157;51.508;4.288;2023-03-01T07:01:37;18.65;;;10.95;;
47403;SDS011;33157;51.508;4.288;2023-03-01T07:06:44;19.27;;;11.52;;
47403;SDS011;33157;51.508;4.288;2023-03-01T07:11:46;15.88;;;10.90;;
47403;SDS011;33157;51.508;4.288;2023-03-01T07:16:49;21.92;;;14.13;;
47403;SDS011;33157;51.508;4.288;2023-03-01T07:22:02;19.88;;;11.55;;
47403;SDS011;33157;51.508;4.288;2023-03-01T07:27:04;17.65;;;11.15;;
47403;SDS011;33157;51.508;4.288;2023-03-01T07:32:11;19.35;;;11.00;;
47403;SDS011;33157;51.508;4.288;2023-03-01T07:37:15;19.42;;;10.73;;
47403;SDS011;33157;51.508;4.288;2023-03-01T07:42:22;44.30;;;11.18;;
47403;SDS011;33157;51.508;4.288;2023-03-01T07:47:24;16.65;;;11.45;;
47403;SDS011;33157;51.508;4.288;2023-03-01T07:52:31;17.52;;;10.38;;
47403;SDS011;33157;51.508;4.288;2023-03-01T07:57:33;14.90;;;10.02;;
47403;SDS011;33157;51.508;4.288;2023-03-01T08:02:34;31.70;;;12.70;;
47403;SDS011;33157;51.508;4.288;2023-03-01T08:07:41;17.58;;;10.57;;
47403;SDS011;33157;51.508;4.288;2023-03-01T08:12:42;16.13;;;10.82;;
47403;SDS011;33157;51.508;4.288;2023-03-01T08:17:50;15.63;;;10.50;;
47403;SDS011;33157;51.508;4.288;2023-03-01T08:22:51;15.02;;;11.02;;
47403;SDS011;33157;51.508;4.288;2023-03-01T08:33:00;16.98;;;9.70;;
47403;SDS011;33157;51.508;4.288;2023-03-01T08:38:01;14.13;;;9.97;;
47403;SDS011;33157;51.508;4.288;2023-03-01T08:43:02;17.88;;;10.82;;
47403;SDS011;33157;51.508;4.288;2023-03-01T08:53:09;13.45;;;10.25;;
47403;SDS011;33157;51.508;4.288;2023-03-01T08:58:10;17.10;;;9.63;;
47403;SDS011;33157;51.508;4.288;2023-03-01T09:03:20;15.50;;;9.13;;
47403;SDS011;33157;51.508;4.288;2023-03-01T09:08:25;11.65;;;6.28;;
47403;SDS011;33157;51.508;4.288;2023-03-01T09:13:27;6.80;;;5.03;;
47403;SDS011;33157;51.508;4.288;2023-03-01T09:18:53;8.80;;;5.75;;
47403;SDS011;33157;51.508;4.288;2023-03-01T09:23:55;6.78;;;4.47;;
47403;SDS011;33157;51.508;4.288;2023-03-01T09:29:23;9.88;;;4.85;;
47403;SDS011;33157;51.508;4.288;2023-03-01T09:34:30;7.97;;;6.03;;
47403;SDS011;33157;51.508;4.288;2023-03-01T09:39:33;8.05;;;4.72;;
47403;SDS011;33157;51.508;4.288;2023-03-01T09:49:43;6.13;;;4.47;;
47403;SDS011;33157;51.508;4.288;2023-03-01T09:54:52;9.27;;;5.03;;
47403;SDS011;33157;51.508;4.288;2023-03-01T10:00:17;8.05;;;4.00;;
47403;SDS011;33157;51.508;4.288;2023-03-01T10:05:48;8.57;;;4.38;;
47403;SDS011;33157;51.508;4.288;2023-03-01T10:10:58;7.68;;;3.95;;
47403;SDS011;33157;51.508;4.288;2023-03-01T10:16:05;6.18;;;4.10;;
47403;SDS011;33157;51.508;4.288;2023-03-01T10:21:44;7.82;;;4.45;;
47403;SDS011;33157;51.508;4.288;2023-03-01T10:26:57;6.22;;;3.70;;
47403;SDS011;33157;51.508;4.288;2023-03-01T10:31:59;6.70;;;4.38;;
47403;SDS011;33157;51.508;4.288;2023-03-01T10:37:12;6.50;;;3.65;;
47403;SDS011;33157;51.508;4.288;2023-03-01T10:42:22;7.43;;;4.22;;
47403;SDS011;33157;51.508;4.288;2023-03-01T10:47:37;6.68;;;4.18;;
47403;SDS011;33157;51.508;4.288;2023-03-01T10:52:40;5.97;;;3.70;;
47403;SDS011;33157;51.508;4.288;2023-03-01T10:57:42;8.48;;;4.03;;
47403;SDS011;33157;51.508;4.288;2023-03-01T11:03:01;7.45;;;4.00;;
47403;SDS011;33157;51.508;4.288;2023-03-01T11:08:05;7.10;;;3.60;;
47403;SDS011;33157;51.508;4.288;2023-03-01T11:13:18;6.33;;;3.10;;
47403;SDS011;33157;51.508;4.288;2023-03-01T11:18:21;6.78;;;3.47;;
47403;SDS011;33157;51.508;4.288;2023-03-01T11:23:24;5.90;;;3.45;;
47403;SDS011;33157;51.508;4.288;2023-03-01T11:28:27;5.40;;;3.53;;
47403;SDS011;33157;51.508;4.288;2023-03-01T11:38:47;6.18;;;3.80;;
47403;SDS011;33157;51.508;4.288;2023-03-01T11:43:56;6.95;;;3.33;;
47403;SDS011;33157;51.508;4.288;2023-03-01T11:49:18;8.60;;;3.97;;
47403;SDS011;33157;51.508;4.288;2023-03-01T12:10:54;6.38;;;3.47;;
47403;SDS011;33157;51.508;4.288;2023-03-01T12:21:54;6.40;;;3.85;;
47403;SDS011;33157;51.508;4.288;2023-03-01T12:32:45;6.50;;;3.55;;
47403;SDS011;33157;51.508;4.288;2023-03-01T12:43:28;6.20;;;3.90;;
47403;SDS011;33157;51.508;4.288;2023-03-01T12:54:11;7.75;;;3.60;;
47403;SDS011;33157;51.508;4.288;2023-03-01T13:15:25;5.97;;;3.60;;
47403;SDS011;33157;51.508;4.288;2023-03-01T13:20:45;7.90;;;3.60;;
47403;SDS011;33157;51.508;4.288;2023-03-01T13:26:09;7.13;;;4.07;;
47403;SDS011;33157;51.508;4.288;2023-03-01T13:46:46;6.78;;;3.65;;
47403;SDS011;33157;51.508;4.288;2023-03-01T13:51:56;6.40;;;4.00;;
47403;SDS011;33157;51.508;4.288;2023-03-01T13:57:00;6.97;;;3.80;;
47403;SDS011;33157;51.508;4.288;2023-03-01T14:02:02;6.72;;;3.70;;
47403;SDS011;33157;51.508;4.288;2023-03-01T14:07:16;8.32;;;3.92;;
47403;SDS011;33157;51.508;4.288;2023-03-01T14:12:44;9.25;;;4.40;;
47403;SDS011;33157;51.508;4.288;2023-03-01T14:23:15;7.68;;;3.70;;
47403;SDS011;33157;51.508;4.288;2023-03-01T14:28:28;7.55;;;4.53;;
47403;SDS011;33157;51.508;4.288;2023-03-01T14:33:37;8.82;;;4.28;;
47403;SDS011;33157;51.508;4.288;2023-03-01T14:38:46;9.98;;;3.92;;
47403;SDS011;33157;51.508;4.288;2023-03-01T14:48:56;8.10;;;4.28;;
47403;SDS011;33157;51.508;4.288;2023-03-01T14:54:21;6.90;;;3.92;;
47403;SDS011;33157;51.508;4.288;2023-03-01T14:59:27;8.20;;;3.40;;
47403;SDS011;33157;51.508;4.288;2023-03-01T15:04:28;7.82;;;3.67;;
47403;SDS011;33157;51.508;4.288;2023-03-01T15:09:30;7.47;;;3.43;;
47403;SDS011;33157;51.508;4.288;2023-03-01T15:14:40;6.00;;;3.47;;
47403;SDS011;33157;51.508;4.288;2023-03-01T15:19:45;9.90;;;4.00;;
47403;SDS011;33157;51.508;4.288;2023-03-01T15:24:52;7.25;;;3.80;;
47403;SDS011;33157;51.508;4.288;2023-03-01T15:29:59;6.32;;;3.78;;
47403;SDS011;33157;51.508;4.288;2023-03-01T15:40:48;6.30;;;4.25;;
47403;SDS011;33157;51.508;4.288;2023-03-01T15:45:56;7.22;;;3.47;;
47403;SDS011;33157;51.508;4.288;2023-03-01T15:50:58;6.85;;;4.00;;
47403;SDS011;33157;51.508;4.288;2023-03-01T15:56:06;8.23;;;4.68;;
47403;SDS011;33157;51.508;4.288;2023-03-01T16:01:10;8.93;;;5.50;;
47403;SDS011;33157;51.508;4.288;2023-03-01T16:06:20;8.48;;;5.07;;
47403;SDS011;33157;51.508;4.288;2023-03-01T16:11:21;6.70;;;4.22;;
47403;SDS011;33157;51.508;4.288;2023-03-01T16:16:22;8.30;;;4.70;;
47403;SDS011;33157;51.508;4.288;2023-03-01T16:21:29;9.25;;;5.03;;
47403;SDS011;33157;51.508;4.288;2023-03-01T16:26:32;8.35;;;5.28;;
47403;SDS011;33157;51.508;4.288;2023-03-01T16:31:38;11.73;;;4.93;;
47403;SDS011;33157;51.508;4.288;2023-03-01T16:36:39;7.22;;;4.35;;
47403;SDS011;33157;51.508;4.288;2023-03-01T16:41:48;10.32;;;4.78;;
47403;SDS011;33157;51.508;4.288;2023-03-01T16:46:49;7.10;;;4.68;;
47403;SDS011;33157;51.508;4.288;2023-03-01T16:51:50;6.95;;;4.53;;
47403;SDS011;33157;51.508;4.288;2023-03-01T16:57:26;8.05;;;4.82;;
47403;SDS011;33157;51.508;4.288;2023-03-01T17:02:34;10.13;;;5.63;;
47403;SDS011;33157;51.508;4.288;2023-03-01T17:07:37;9.57;;;4.93;;
47403;SDS011;33157;51.508;4.288;2023-03-01T17:12:40;8.95;;;5.28;;
47403;SDS011;33157;51.508;4.288;2023-03-01T17:17:42;13.45;;;6.70;;
47403;SDS011;33157;51.508;4.288;2023-03-01T17:22:45;13.45;;;8.20;;
47403;SDS011;33157;51.508;4.288;2023-03-01T17:27:52;17.57;;;8.10;;
47403;SDS011;33157;51.508;4.288;2023-03-01T17:32:57;26.23;;;13.02;;
47403;SDS011;33157;51.508;4.288;2023-03-01T17:38:05;8.50;;;5.32;;
47403;SDS011;33157;51.508;4.288;2023-03-01T17:43:08;12.23;;;5.40;;
47403;SDS011;33157;51.508;4.288;2023-03-01T17:53:11;13.95;;;6.25;;
47403;SDS011;33157;51.508;4.288;2023-03-01T17:58:18;12.20;;;5.82;;
47403;SDS011;33157;51.508;4.288;2023-03-01T18:03:24;10.00;;;5.72;;
47403;SDS011;33157;51.508;4.288;2023-03-01T18:08:27;10.85;;;5.43;;
47403;SDS011;33157;51.508;4.288;2023-03-01T18:13:28;9.47;;;5.57;;
47403;SDS011;33157;51.508;4.288;2023-03-01T18:18:29;10.10;;;5.50;;
47403;SDS011;33157;51.508;4.288;2023-03-01T18:23:33;10.50;;;5.88;;
47403;SDS011;33157;51.508;4.288;2023-03-01T18:28:41;10.75;;;6.53;;
47403;SDS011;33157;51.508;4.288;2023-03-01T18:33:46;12.88;;;6.05;;
47403;SDS011;33157;51.508;4.288;2023-03-01T18:38:54;11.90;;;6.00;;
47403;SDS011;33157;51.508;4.288;2023-03-01T18:44:01;12.30;;;6.20;;
47403;SDS011;33157;51.508;4.288;2023-03-01T18:49:05;11.35;;;7.13;;
47403;SDS011;33157;51.508;4.288;2023-03-01T18:54:09;11.95;;;6.82;;
47403;SDS011;33157;51.508;4.288;2023-03-01T18:59:12;10.30;;;6.43;;
47403;SDS011;33157;51.508;4.288;2023-03-01T19:04:14;10.50;;;6.38;;
47403;SDS011;33157;51.508;4.288;2023-03-01T19:09:18;10.03;;;6.00;;
47403;SDS011;33157;51.508;4.288;2023-03-01T19:14:28;9.38;;;5.25;;
47403;SDS011;33157;51.508;4.288;2023-03-01T19:19:34;8.45;;;5.90;;
47403;SDS011;33157;51.508;4.288;2023-03-01T19:24:36;11.47;;;5.63;;
47403;SDS011;33157;51.508;4.288;2023-03-01T19:29:38;9.75;;;5.40;;
47403;SDS011;33157;51.508;4.288;2023-03-01T19:34:46;11.82;;;5.78;;
47403;SDS011;33157;51.508;4.288;2023-03-01T19:39:54;12.27;;;6.63;;
47403;SDS011;33157;51.508;4.288;2023-03-01T19:45:00;14.00;;;7.53;;
47403;SDS011;33157;51.508;4.288;2023-03-01T19:50:03;10.95;;;7.13;;
47403;SDS011;33157;51.508;4.288;2023-03-01T19:55:05;10.25;;;6.45;;
47403;SDS011;33157;51.508;4.288;2023-03-01T20:00:12;10.73;;;6.00;;
47403;SDS011;33157;51.508;4.288;2023-03-01T20:05:15;8.93;;;6.07;;
47403;SDS011;33157;51.508;4.288;2023-03-01T20:10:19;10.45;;;7.03;;
47403;SDS011;33157;51.508;4.288;2023-03-01T20:15:22;12.52;;;6.85;;
47403;SDS011;33157;51.508;4.288;2023-03-01T20:20:25;12.05;;;7.47;;
47403;SDS011;33157;51.508;4.288;2023-03-01T20:25:32;12.07;;;6.40;;
47403;SDS011;33157;51.508;4.288;2023-03-01T20:30:35;9.55;;;6.07;;
47403;SDS011;33157;51.508;4.288;2023-03-01T20:36:06;10.83;;;5.50;;
47403;SDS011;33157;51.508;4.288;2023-03-01T20:41:14;8.27;;;5.15;;
47403;SDS011;33157;51.508;4.288;2023-03-01T20:46:16;9.23;;;5.43;;
47403;SDS011;33157;51.508;4.288;2023-03-01T20:51:18;9.95;;;5.18;;
47403;SDS011;33157;51.508;4.288;2023-03-01T20:56:22;7.67;;;4.90;;
47403;SDS011;33157;51.508;4.288;2023-03-01T21:01:27;13.50;;;5.60;;
47403;SDS011;33157;51.508;4.288;2023-03-01T21:06:45;12.02;;;6.03;;
47403;SDS011;33157;51.508;4.288;2023-03-01T21:16:52;9.98;;;6.13;;
47403;SDS011;33157;51.508;4.288;2023-03-01T21:21:55;10.70;;;6.25;;
47403;SDS011;33157;51.508;4.288;2023-03-01T21:32:09;9.88;;;5.30;;
47403;SDS011;33157;51.508;4.288;2023-03-01T21:37:11;9.50;;;5.40;;
47403;SDS011;33157;51.508;4.288;2023-03-01T21:42:27;10.35;;;5.25;;
47403;SDS011;33157;51.508;4.288;2023-03-01T21:47:36;9.65;;;5.07;;
47403;SDS011;33157;51.508;4.288;2023-03-01T21:52:51;7.47;;;5.03;;
47403;SDS011;33157;51.508;4.288;2023-03-01T21:57:54;8.73;;;5.47;;
47403;SDS011;33157;51.508;4.288;2023-03-01T22:03:00;10.40;;;5.63;;
47403;SDS011;33157;51.508;4.288;2023-03-01T22:08:07;9.10;;;5.05;;
47403;SDS011;33157;51.508;4.288;2023-03-01T22:13:10;9.70;;;4.95;;
47403;SDS011;33157;51.508;4.288;2023-03-01T22:18:13;12.32;;;4.60;;
47403;SDS011;33157;51.508;4.288;2023-03-01T22:23:24;9.55;;;4.80;;
47403;SDS011;33157;51.508;4.288;2023-03-01T22:28:28;9.85;;;4.85;;
47403;SDS011;33157;51.508;4.288;2023-03-01T22:33:30;12.35;;;5.05;;
47403;SDS011;33157;51.508;4.288;2023-03-01T22:38:45;9.30;;;5.07;;
47403;SDS011;33157;51.508;4.288;2023-03-01T22:43:49;8.13;;;4.63;;
47403;SDS011;33157;51.508;4.288;2023-03-01T22:48:55;8.23;;;4.32;;
47403;SDS011;33157;51.508;4.288;2023-03-01T22:53:57;9.57;;;5.78;;
47403;SDS011;33157;51.508;4.288;2023-03-01T22:59:04;13.48;;;5.13;;
47403;SDS011;33157;51.508;4.288;2023-03-01T23:04:10;8.13;;;4.40;;
47403;SDS011;33157;51.508;4.288;2023-03-01T23:09:25;7.53;;;4.70;;
47403;SDS011;33157;51.508;4.288;2023-03-01T23:14:31;8.80;;;4.65;;
47403;SDS011;33157;51.508;4.288;2023-03-01T23:19:38;8.65;;;4.70;;
47403;SDS011;33157;51.508;4.288;2023-03-01T23:24:42;7.45;;;4.63;;
47403;SDS011;33157;51.508;4.288;2023-03-01T23:29:46;8.65;;;4.50;;
47403;SDS011;33157;51.508;4.288;2023-03-01T23:35:11;6.85;;;4.10;;
47403;SDS011;33157;51.508;4.288;2023-03-01T23:40:23;7.68;;;4.20;;
47403;SDS011;33157;51.508;4.288;2023-03-01T23:45:25;8.35;;;4.60;;
47403;SDS011;33157;51.508;4.288;2023-03-01T23:50:27;12.20;;;5.30;;
47403;SDS011;33157;51.508;4.288;2023-03-01T23:55:29;12.98;;;5.60;;
